1321 UTC 22 December 2014 found at http://aviationweather.gov/adds/metars/
 
METAR text: KAFF 221258Z AUTO 32004KT 10SM CLR M02/M05 A2975 RMK AO2 UPB25E33 SLP077 P0000 T10171046
Conditions at: KAFF (USAF ACADEMY/COS, CO, US) observed 1258 UTC 22 December 2014
Temperature: -1.7°C (29°F)
Dewpoint: -4.6°C (24°F) [RH = 81%]
Pressure (altimeter): 29.75 inches Hg (1007.5 mb[Sea-level pressure: 1007.7 mb]
Winds: from the NW (320 degrees) at 5 MPH (4 knots; 2.1 m/s)
Visibility: 10 or more miles (16+ km)
Ceiling: at least 12,000 feet AGL
Clouds: sky clear below 12,000 feet AGL
Weather: automated observation with no human augmentation;
there may or may not be significant weather present at this time

METAR text: KAFF 221158Z AUTO 33003KT 10SM CLR M03/M04 A2973 RMK AO2 SLP070 60002 70002 T10341039 10021 21037 53001
Conditions at: KAFF (USAF ACADEMY/COS, CO, US) observed 1158 UTC 22 December 2014
Temperature: -3.4°C (26°F)
Dewpoint: -3.9°C (25°F) [RH = 96%]
Pressure (altimeter): 29.73 inches Hg (1006.9 mb[Sea-level pressure: 1007.0 mb]
Winds: from the NNW (330 degrees) at 3 MPH (3 knots; 1.6 m/s)
Visibility: 10 or more miles (16+ km)
Ceiling: at least 12,000 feet AGL
Clouds: sky clear below 12,000 feet AGL
Weather: automated observation with no human augmentation;
there may or may not be significant weather present at this time

METAR text: KAFF 221058Z AUTO 01005KT 10SM FEW060 M03/M04 A2972 RMK AO2 SLP067 T10291036
Conditions at: KAFF (USAF ACADEMY/COS, CO, US) observed 1058 UTC 22 December 2014
Temperature: -2.9°C (27°F)
Dewpoint: -3.6°C (26°F) [RH = 95%]
Pressure (altimeter): 29.72 inches Hg (1006.5 mb[Sea-level pressure: 1006.7 mb]
Winds: from the N (10 degrees) at 6 MPH (5 knots; 2.6 m/s)
Visibility: 10 or more miles (16+ km)
Ceiling: at least 12,000 feet AGL
Clouds: few clouds at 6000 feet AGL
Weather: automated observation with no human augmentation;
there may or may not be significant weather present at this time

METAR text: KAFF 220958Z AUTO 36004KT 10SM SCT055 M01/M03 A2972 RMK AO2 SNE11UPB11E21 SLP054 P0000 T10111026
Conditions at: KAFF (USAF ACADEMY/COS, CO, US) observed 0958 UTC 22 December 2014
Temperature: -1.1°C (30°F)
Dewpoint: -2.6°C (27°F) [RH = 90%]
Pressure (altimeter): 29.72 inches Hg (1006.5 mb[Sea-level pressure: 1005.4 mb]
Winds: from the N (360 degrees) at 5 MPH (4 knots; 2.1 m/s)
Visibility: 10 or more miles (16+ km)
Ceiling: at least 12,000 feet AGL
Clouds: scattered clouds at 5500 feet AGL
Weather: automated observation with no human augmentation;
there may or may not be significant weather present at this time

METAR text: KAFF 220921Z AUTO 35005KT 10SM SCT016 00/M01 A2972 RMK AO2 SNE11UPB11E21
Conditions at: KAFF (USAF ACADEMY/COS, CO, US) observed 0921 UTC 22 December 2014
Temperature: 0.0°C (32°F)
Dewpoint: -1.0°C (30°F) [RH = 93%]
Pressure (altimeter): 29.72 inches Hg (1006.5 mb)
Winds: from the N (350 degrees) at 6 MPH (5 knots; 2.6 m/s)
Visibility: 10 or more miles (16+ km)
Ceiling: at least 12,000 feet AGL
Clouds: scattered clouds at 1600 feet AGL
Weather: automated observation with no human augmentation;
there may or may not be significant weather present at this time

METAR text: KAFF 220918Z AUTO 35006KT 10SM UP SCT014 00/M01 A2972 RMK AO2 SNE11UPB11
Conditions at: KAFF (USAF ACADEMY/COS, CO, US) observed 0918 UTC 22 December 2014
Temperature: 0.0°C (32°F)
Dewpoint: -1.0°C (30°F) [RH = 93%]
Pressure (altimeter): 29.72 inches Hg (1006.5 mb)
Winds: from the N (350 degrees) at 7 MPH (6 knots; 3.1 m/s)
Visibility: 10 or more miles (16+ km)
Ceiling: at least 12,000 feet AGL
Clouds: scattered clouds at 1400 feet AGL
Weather: UP  (unknown precipitation)

METAR text: KAFF 220908Z AUTO 35005KT 10SM -SN BKN014 00/M01 A2972 RMK AO2 CIG 014V018
Conditions at: KAFF (USAF ACADEMY/COS, CO, US) observed 0908 UTC 22 December 2014
Temperature: 0.0°C (32°F)
Dewpoint: -1.0°C (30°F) [RH = 93%]
Pressure (altimeter): 29.72 inches Hg (1006.5 mb)
Winds: from the N (350 degrees) at 6 MPH (5 knots; 2.6 m/s)
Visibility: 10 or more miles (16+ km)
Ceiling: 1400 feet AGL
Clouds: broken clouds at 1400 feet AGL
Weather: -SN  (light snow)

METAR text: KAFF 220858Z AUTO 35005KT 9SM -SN OVC017 00/M01 A2972 RMK AO2 SLP048 P0001 60002 T10051007 52013
Conditions at: KAFF (USAF ACADEMY/COS, CO, US) observed 0858 UTC 22 December 2014
Temperature: -0.5°C (31°F)
Dewpoint: -0.7°C (31°F) [RH = 99%]
Pressure (altimeter): 29.72 inches Hg (1006.5 mb[Sea-level pressure: 1004.8 mb]
Winds: from the N (350 degrees) at 6 MPH (5 knots; 2.6 m/s)
Visibility: 9 miles (14 km)
Ceiling: 1700 feet AGL
Clouds: overcast cloud deck at 1700 feet AGL
Weather: -SN  (light snow)

METAR text: KAFF 220833Z AUTO 36008KT 10SM -SN FEW002 OVC015 00/00 A2971 RMK AO2 CIG 008V015
Conditions at: KAFF (USAF ACADEMY/COS, CO, US) observed 0833 UTC 22 December 2014
Temperature: 0.0°C (32°F)
Dewpoint: 0.0°C (32°F) [RH = 100%]
Pressure (altimeter): 29.71 inches Hg (1006.2 mb)
Winds: from the N (360 degrees) at 9 MPH (8 knots; 4.2 m/s)
Visibility: 10 or more miles (16+ km)
Ceiling: 1500 feet AGL
Clouds: few clouds at 200 feet AGL
overcast cloud deck at 1500 feet AGL
Weather: -SN  (light snow)

METAR text: KAFF 220828Z AUTO 35008KT 7SM -SN SCT002 OVC013 00/00 A2972 RMK AO2 CIG 006V013
Conditions at: KAFF (USAF ACADEMY/COS, CO, US) observed 0828 UTC 22 December 2014
Temperature: 0.0°C (32°F)
Dewpoint: 0.0°C (32°F) [RH = 100%]
Pressure (altimeter): 29.72 inches Hg (1006.5 mb)
Winds: from the N (350 degrees) at 9 MPH (8 knots; 4.2 m/s)
Visibility: 7 miles (11 km)
Ceiling: 1300 feet AGL
Clouds: scattered clouds at 200 feet AGL
overcast cloud deck at 1300 feet AGL
Weather: -SN  (light snow)

METAR text: KAFF 220823Z AUTO 35008KT 5SM -SN BR SCT002 OVC008 00/00 A2972 RMK AO2 CIG 002V008
Conditions at: KAFF (USAF ACADEMY/COS, CO, US) observed 0823 UTC 22 December 2014
Temperature: 0.0°C (32°F)
Dewpoint: 0.0°C (32°F) [RH = 100%]
Pressure (altimeter): 29.72 inches Hg (1006.5 mb)
Winds: from the N (350 degrees) at 9 MPH (8 knots; 4.2 m/s)
Visibility: 5 miles (8 km)
Ceiling: 800 feet AGL
Clouds: scattered clouds at 200 feet AGL
overcast cloud deck at 800 feet AGL
Weather: -SN BR  (light snow, mist)

METAR text: KAFF 220818Z AUTO 35007KT 3SM -SN BR SCT002 OVC006 00/00 A2971 RMK AO2 CIG 002V006
Conditions at: KAFF (USAF ACADEMY/COS, CO, US) observed 0818 UTC 22 December 2014
Temperature: 0.0°C (32°F)
Dewpoint: 0.0°C (32°F) [RH = 100%]
Pressure (altimeter): 29.71 inches Hg (1006.2 mb)
Winds: from the N (350 degrees) at 8 MPH (7 knots; 3.6 m/s)
Visibility: 3 miles (5 km)
Ceiling: 600 feet AGL
Clouds: scattered clouds at 200 feet AGL
overcast cloud deck at 600 feet AGL
Weather: -SN BR  (light snow, mist)

METAR text: KAFF 220813Z AUTO 35007KT 2 1/2SM -SN BR BKN002 OVC007 00/00 A2971 RMK AO2 VIS 2 1/2V4 CIG 002V007 BKN V SCT
Conditions at: KAFF (USAF ACADEMY/COS, CO, US) observed 0813 UTC 22 December 2014
Temperature: 0.0°C (32°F)
Dewpoint: 0.0°C (32°F) [RH = 100%]
Pressure (altimeter): 29.71 inches Hg (1006.2 mb)
Winds: from the N (350 degrees) at 8 MPH (7 knots; 3.6 m/s)
Visibility: 2.50 miles (4.02 km)
Ceiling: 200 feet AGL
Clouds: broken clouds at 200 feet AGL
overcast cloud deck at 700 feet AGL
Weather: -SN BR  (light snow, mist)

METAR text: KAFF 220808Z AUTO 33007KT 3SM -SN BR SCT002 OVC007 00/00 A2971 RMK AO2 CIG 006V008
Conditions at: KAFF (USAF ACADEMY/COS, CO, US) observed 0808 UTC 22 December 2014
Temperature: 0.0°C (32°F)
Dewpoint: 0.0°C (32°F) [RH = 100%]
Pressure (altimeter): 29.71 inches Hg (1006.2 mb)
Winds: from the NNW (330 degrees) at 8 MPH (7 knots; 3.6 m/s)
Visibility: 3 miles (5 km)
Ceiling: 700 feet AGL
Clouds: scattered clouds at 200 feet AGL
overcast cloud deck at 700 feet AGL
Weather: -SN BR  (light snow, mist)

METAR text: KAFF 220803Z AUTO 34007KT 4SM -SN BR FEW002 OVC007 00/00 A2971 RMK AO2 CIG 004V008
Conditions at: KAFF (USAF ACADEMY/COS, CO, US) observed 0803 UTC 22 December 2014
Temperature: 0.0°C (32°F)
Dewpoint: 0.0°C (32°F) [RH = 100%]
Pressure (altimeter): 29.71 inches Hg (1006.2 mb)
Winds: from the NNW (340 degrees) at 8 MPH (7 knots; 3.6 m/s)
Visibility: 4 miles (6 km)
Ceiling: 700 feet AGL
Clouds: few clouds at 200 feet AGL
overcast cloud deck at 700 feet AGL
Weather: -SN BR  (light snow, mist)

METAR text: KAFF 220758Z AUTO 33007KT 5SM -SN BR OVC006 00/M01 A2971 RMK AO2 SNE05RAB05E09RAB12E21SNB21 CIG 004V006 SLP051 P0000
Conditions at: KAFF (USAF ACADEMY/COS, CO, US) observed 0758 UTC 22 December 2014
Temperature: 0.0°C (32°F)
Dewpoint: -1.0°C (30°F) [RH = 93%]
Pressure (altimeter): 29.71 inches Hg (1006.2 mb[Sea-level pressure: 1005.1 mb]
Winds: from the NNW (330 degrees) at 8 MPH (7 knots; 3.6 m/s)
Visibility: 5 miles (8 km)
Ceiling: 600 feet AGL
Clouds: overcast cloud deck at 600 feet AGL
Weather: -SN BR  (light snow, mist)

METAR text: KAFF 220757Z AUTO 33007KT 5SM -SN BR OVC006 00/M01 A2971 RMK AO2 SNE05RAB05E09RAB12E21SNB21 CIG 004V006
Conditions at: KAFF (USAF ACADEMY/COS, CO, US) observed 0757 UTC 22 December 2014
Temperature: 0.0°C (32°F)
Dewpoint: -1.0°C (30°F) [RH = 93%]
Pressure (altimeter): 29.71 inches Hg (1006.2 mb)
Winds: from the NNW (330 degrees) at 8 MPH (7 knots; 3.6 m/s)
Visibility: 5 miles (8 km)
Ceiling: 600 feet AGL
Clouds: overcast cloud deck at 600 feet AGL
Weather: -SN BR  (light snow, mist)

METAR text: KAFF 220752Z AUTO 34007KT 3SM -SN BR OVC004 00/M01 A2970 RMK AO2 SNE05RAB05E09RAB12E21SNB21 CIG 004V007
Conditions at: KAFF (USAF ACADEMY/COS, CO, US) observed 0752 UTC 22 December 2014
Temperature: 0.0°C (32°F)
Dewpoint: -1.0°C (30°F) [RH = 93%]
Pressure (altimeter): 29.70 inches Hg (1005.8 mb)
Winds: from the NNW (340 degrees) at 8 MPH (7 knots; 3.6 m/s)
Visibility: 3 miles (5 km)
Ceiling: 400 feet AGL
Clouds: overcast cloud deck at 400 feet AGL
Weather: -SN BR  (light snow, mist)

METAR text: KAFF 220747Z AUTO 34007KT 3SM -SN BR OVC005 00/M01 A2971 RMK AO2 SNE05RAB05E09RAB12E21SNB21 CIG 005V007
Conditions at: KAFF (USAF ACADEMY/COS, CO, US) observed 0747 UTC 22 December 2014
Temperature: 0.0°C (32°F)
Dewpoint: -1.0°C (30°F) [RH = 93%]
Pressure (altimeter): 29.71 inches Hg (1006.2 mb)
Winds: from the NNW (340 degrees) at 8 MPH (7 knots; 3.6 m/s)
Visibility: 3 miles (5 km)
Ceiling: 500 feet AGL
Clouds: overcast cloud deck at 500 feet AGL
Weather: -SN BR  (light snow, mist)

METAR text: KAFF 220742Z AUTO 33006KT 3SM -SN BR OVC007 00/M01 A2970 RMK AO2 SNE05RAB05E09RAB12E21SNB21 CIG 007V009 OVC V BKN
Conditions at: KAFF (USAF ACADEMY/COS, CO, US) observed 0742 UTC 22 December 2014
Temperature: 0.0°C (32°F)
Dewpoint: -1.0°C (30°F) [RH = 93%]
Pressure (altimeter): 29.70 inches Hg (1005.8 mb)
Winds: from the NNW (330 degrees) at 7 MPH (6 knots; 3.1 m/s)
Visibility: 3 miles (5 km)
Ceiling: 700 feet AGL
Clouds: overcast cloud deck at 700 feet AGL
Weather: -SN BR  (light snow, mist)

METAR text: KAFF 220732Z AUTO 34008KT 4SM -SN BR BKN009 00/M01 A2971 RMK AO2 SNE05RAB05E09RAB12E21SNB21 CIG 009V017
Conditions at: KAFF (USAF ACADEMY/COS, CO, US) observed 0732 UTC 22 December 2014
Temperature: 0.0°C (32°F)
Dewpoint: -1.0°C (30°F) [RH = 93%]
Pressure (altimeter): 29.71 inches Hg (1006.2 mb)
Winds: from the NNW (340 degrees) at 9 MPH (8 knots; 4.2 m/s)
Visibility: 4 miles (6 km)
Ceiling: 900 feet AGL
Clouds: broken clouds at 900 feet AGL
Weather: -SN BR  (light snow, mist)

METAR text: KAFF 220727Z AUTO 34008KT 5SM -SN BR BKN013 BKN022 00/M01 A2971 RMK AO2 SNE05RAB05E09RAB12E21SNB21 CIG 013V017
Conditions at: KAFF (USAF ACADEMY/COS, CO, US) observed 0727 UTC 22 December 2014
Temperature: 0.0°C (32°F)
Dewpoint: -1.0°C (30°F) [RH = 93%]
Pressure (altimeter): 29.71 inches Hg (1006.2 mb)
Winds: from the NNW (340 degrees) at 9 MPH (8 knots; 4.2 m/s)
Visibility: 5 miles (8 km)
Ceiling: 1300 feet AGL
Clouds: broken clouds at 1300 feet AGL
broken clouds at 2200 feet AGL
Weather: -SN BR  (light snow, mist)

METAR text: KAFF 220722Z AUTO 34009KT 8SM -SN BKN017 00/M01 A2971 RMK AO2 SNE05RAB05E09RAB12E21SNB21 BKN V SCT
Conditions at: KAFF (USAF ACADEMY/COS, CO, US) observed 0722 UTC 22 December 2014
Temperature: 0.0°C (32°F)
Dewpoint: -1.0°C (30°F) [RH = 93%]
Pressure (altimeter): 29.71 inches Hg (1006.2 mb)
Winds: from the NNW (340 degrees) at 10 MPH (9 knots; 4.7 m/s)
Visibility: 8 miles (13 km)
Ceiling: 1700 feet AGL
Clouds: broken clouds at 1700 feet AGL
Weather: -SN  (light snow)

METAR text: KAFF 220712Z AUTO 35011KT 10SM -RA FEW002 SCT006 00/M01 A2971 RMK AO2 SNE05RAB05E09RAB12
Conditions at: KAFF (USAF ACADEMY/COS, CO, US) observed 0712 UTC 22 December 2014
Temperature: 0.0°C (32°F)
Dewpoint: -1.0°C (30°F) [RH = 93%]
Pressure (altimeter): 29.71 inches Hg (1006.2 mb)
Winds: from the N (350 degrees) at 13 MPH (11 knots; 5.7 m/s)
Visibility: 10 or more miles (16+ km)
Ceiling: at least 12,000 feet AGL
Clouds: few clouds at 200 feet AGL
scattered clouds at 600 feet AGL
Weather: -RA  (light rain)

METAR text: KAFF 220709Z AUTO 35012KT 10SM FEW002 SCT006 SCT019 BKN032 00/00 A2971 RMK AO2 SNE05RAB05E09
Conditions at: KAFF (USAF ACADEMY/COS, CO, US) observed 0709 UTC 22 December 2014
Temperature: 0.0°C (32°F)
Dewpoint: 0.0°C (32°F) [RH = 100%]
Pressure (altimeter): 29.71 inches Hg (1006.2 mb)
Winds: from the N (350 degrees) at 14 MPH (12 knots; 6.2 m/s)
Visibility: 10 or more miles (16+ km)
Ceiling: 3200 feet AGL
Clouds: few clouds at 200 feet AGL
scattered clouds at 600 feet AGL
scattered clouds at 1900 feet AGL
broken clouds at 3200 feet AGL
Weather: automated observation with no human augmentation;
there may or may not be significant weather present at this time

METAR text: KAFF 220708Z AUTO 34011G21KT 10SM -RA FEW002 SCT006 BKN019 BKN032 00/00 A2971 RMK AO2 SNE05RAB05 CIG 006V019
Conditions at: KAFF (USAF ACADEMY/COS, CO, US) observed 0708 UTC 22 December 2014
Temperature: 0.0°C (32°F)
Dewpoint: 0.0°C (32°F) [RH = 100%]
Pressure (altimeter): 29.71 inches Hg (1006.2 mb)
Winds: from the NNW (340 degrees) at 13 MPH (11 knots; 5.7 m/sgusting to 24 MPH (21 knots; 10.9 m/s)
Visibility: 10 or more miles (16+ km)
Ceiling: 1900 feet AGL
Clouds: few clouds at 200 feet AGL
scattered clouds at 600 feet AGL
broken clouds at 1900 feet AGL
broken clouds at 3200 feet AGL
Weather: -RA  (light rain)

METAR text: KAFF 220703Z AUTO 35014G21KT 8SM -SN FEW002 BKN007 BKN019 BKN032 00/00 A2970 RMK AO2 BKN007 V OVC
Conditions at: KAFF (USAF ACADEMY/COS, CO, US) observed 0703 UTC 22 December 2014
Temperature: 0.0°C (32°F)
Dewpoint: 0.0°C (32°F) [RH = 100%]
Pressure (altimeter): 29.70 inches Hg (1005.8 mb)
Winds: from the N (350 degrees) at 16 MPH (14 knots; 7.3 m/sgusting to 24 MPH (21 knots; 10.9 m/s)
Visibility: 8 miles (13 km)
Ceiling: 700 feet AGL
Clouds: few clouds at 200 feet AGL
broken clouds at 700 feet AGL
broken clouds at 1900 feet AGL
broken clouds at 3200 feet AGL
Weather: -SN  (light snow)

METAR text: KAFF 220658Z AUTO 35015KT 4SM -SN BR FEW002 OVC007 00/00 A2970 RMK AO2 PK WND 34029/33 DZB0558E00RAB05E15UPB15E17RAB17E33SNB33 SLP047 P0001
Conditions at: KAFF (USAF ACADEMY/COS, CO, US) observed 0658 UTC 22 December 2014
Temperature: 0.0°C (32°F)
Dewpoint: 0.0°C (32°F) [RH = 100%]
Pressure (altimeter): 29.70 inches Hg (1005.8 mb[Sea-level pressure: 1004.7 mb]
Winds: from the N (350 degrees) at 17 MPH (15 knots; 7.8 m/s)
Visibility: 4 miles (6 km)
Ceiling: 700 feet AGL
Clouds: few clouds at 200 feet AGL
overcast cloud deck at 700 feet AGL
Weather: -SN BR  (light snow, mist)

METAR text: KAFF 220655Z AUTO 34016G21KT 3SM -SN BR FEW002 OVC007 00/00 A2970 RMK AO2 DZB0558E00RAB05E15UPB15E17RAB17E33SNB33 CIG 007V009
Conditions at: KAFF (USAF ACADEMY/COS, CO, US) observed 0655 UTC 22 December 2014
Temperature: 0.0°C (32°F)
Dewpoint: 0.0°C (32°F) [RH = 100%]
Pressure (altimeter): 29.70 inches Hg (1005.8 mb)
Winds: from the NNW (340 degrees) at 18 MPH (16 knots; 8.3 m/sgusting to 24 MPH (21 knots; 10.9 m/s)
Visibility: 3 miles (5 km)
Ceiling: 700 feet AGL
Clouds: few clouds at 200 feet AGL
overcast cloud deck at 700 feet AGL
Weather: -SN BR  (light snow, mist)

METAR text: KAFF 220650Z AUTO 33013G21KT 2 1/2SM -SN BR SCT002 OVC007 00/00 A2970 RMK AO2 VIS 2 1/2V5 DZB0558E00RAB05E15UPB15E17RAB17E33SNB33 CIG 007V010
Conditions at: KAFF (USAF ACADEMY/COS, CO, US) observed 0650 UTC 22 December 2014
Temperature: 0.0°C (32°F)
Dewpoint: 0.0°C (32°F) [RH = 100%]
Pressure (altimeter): 29.70 inches Hg (1005.8 mb)
Winds: from the NNW (330 degrees) at 15 MPH (13 knots; 6.8 m/sgusting to 24 MPH (21 knots; 10.9 m/s)
Visibility: 2.50 miles (4.02 km)
Ceiling: 700 feet AGL
Clouds: scattered clouds at 200 feet AGL
overcast cloud deck at 700 feet AGL
Weather: -SN BR  (light snow, mist)

METAR text: KAFF 220645Z AUTO 35016G21KT 3SM -SN BR SCT002 OVC009 01/00 A2970 RMK AO2 DZB0558E00RAB05E15UPB15E17RAB17E33SNB33 CIG 009V012
Conditions at: KAFF (USAF ACADEMY/COS, CO, US) observed 0645 UTC 22 December 2014
Temperature: 1.0°C (34°F)
Dewpoint: 0.0°C (32°F) [RH = 93%]
Pressure (altimeter): 29.70 inches Hg (1005.8 mb)
Winds: from the N (350 degrees) at 18 MPH (16 knots; 8.3 m/sgusting to 24 MPH (21 knots; 10.9 m/s)
Visibility: 3 miles (5 km)
Ceiling: 900 feet AGL
Clouds: scattered clouds at 200 feet AGL
overcast cloud deck at 900 feet AGL
Weather: -SN BR  (light snow, mist)

METAR text: KAFF 220615Z AUTO 34011G16KT 10SM UP BKN014 02/00 A2969 RMK AO2 DZB0558E00RAB05E15UPB15
Conditions at: KAFF (USAF ACADEMY/COS, CO, US) observed 0615 UTC 22 December 2014
Temperature: 2.0°C (36°F)
Dewpoint: 0.0°C (32°F) [RH = 87%]
Pressure (altimeter): 29.69 inches Hg (1005.5 mb)
Winds: from the NNW (340 degrees) at 13 MPH (11 knots; 5.7 m/sgusting to 18 MPH (16 knots; 8.3 m/s)
Visibility: 10 or more miles (16+ km)
Ceiling: 1400 feet AGL
Clouds: broken clouds at 1400 feet AGL
Weather: UP  (unknown precipitation)

METAR text: KAFF 220605Z AUTO 35007KT 10SM -RA FEW016 02/00 A2968 RMK AO2 DZB0558E00RAB05
Conditions at: KAFF (USAF ACADEMY/COS, CO, US) observed 0605 UTC 22 December 2014
Temperature: 2.0°C (36°F)
Dewpoint: 0.0°C (32°F) [RH = 87%]
Pressure (altimeter): 29.68 inches Hg (1005.2 mb)
Winds: from the N (350 degrees) at 8 MPH (7 knots; 3.6 m/s)
Visibility: 10 or more miles (16+ km)
Ceiling: at least 12,000 feet AGL
Clouds: few clouds at 1600 feet AGL
Weather: -RA  (light rain)

METAR text: KAFF 220558Z AUTO 34006KT 10SM CLR 02/00 A2968 RMK AO2 UPB49E50DZB50 SLP034 P0000 60000 T00201004 10060 20011 53016
Conditions at: KAFF (USAF ACADEMY/COS, CO, US) observed 0558 UTC 22 December 2014
Temperature: 2.0°C (36°F)
Dewpoint: -0.4°C (31°F) [RH = 84%]
Pressure (altimeter): 29.68 inches Hg (1005.2 mb[Sea-level pressure: 1003.4 mb]
Winds: from the NNW (340 degrees) at 7 MPH (6 knots; 3.1 m/s)
Visibility: 10 or more miles (16+ km)
Ceiling: at least 12,000 feet AGL
Clouds: sky clear below 12,000 feet AGL
Weather: automated observation with no human augmentation;
there may or may not be significant weather present at this time

METAR text: KAFF 220553Z AUTO 34006KT 10SM CLR 02/00 A2967 RMK AO2 UPB49E50DZB50
Conditions at: KAFF (USAF ACADEMY/COS, CO, US) observed 0553 UTC 22 December 2014
Temperature: 2.0°C (36°F)
Dewpoint: 0.0°C (32°F) [RH = 87%]
Pressure (altimeter): 29.67 inches Hg (1004.8 mb)
Winds: from the NNW (340 degrees) at 7 MPH (6 knots; 3.1 m/s)
Visibility: 10 or more miles (16+ km)
Ceiling: at least 12,000 feet AGL
Clouds: sky clear below 12,000 feet AGL
Weather: automated observation with no human augmentation;
there may or may not be significant weather present at this time

METAR text: KAFF 220549Z AUTO 34006KT 10SM UP FEW070 02/00 A2967 RMK AO2 UPB49
Conditions at: KAFF (USAF ACADEMY/COS, CO, US) observed 0549 UTC 22 December 2014
Temperature: 2.0°C (36°F)
Dewpoint: 0.0°C (32°F) [RH = 87%]
Pressure (altimeter): 29.67 inches Hg (1004.8 mb)
Winds: from the NNW (340 degrees) at 7 MPH (6 knots; 3.1 m/s)
Visibility: 10 or more miles (16+ km)
Ceiling: at least 12,000 feet AGL
Clouds: few clouds at 7000 feet AGL
Weather: UP  (unknown precipitation)

METAR text: KAFF 220458Z AUTO 34007KT 10SM CLR 02/M02 A2964 RMK AO2 SLP020 T00201019
Conditions at: KAFF (USAF ACADEMY/COS, CO, US) observed 0458 UTC 22 December 2014
Temperature: 2.0°C (36°F)
Dewpoint: -1.9°C (29°F) [RH = 75%]
Pressure (altimeter): 29.64 inches Hg (1003.8 mb[Sea-level pressure: 1002.0 mb]
Winds: from the NNW (340 degrees) at 8 MPH (7 knots; 3.6 m/s)
Visibility: 10 or more miles (16+ km)
Ceiling: at least 12,000 feet AGL
Clouds: sky clear below 12,000 feet AGL
Weather: automated observation with no human augmentation;
there may or may not be significant weather present at this time

METAR text: KAFF 220358Z AUTO 34009KT 10SM CLR 03/M03 A2962 RMK AO2 SLP019 T00341032
Conditions at: KAFF (USAF ACADEMY/COS, CO, US) observed 0358 UTC 22 December 2014
Temperature: 3.4°C (38°F)
Dewpoint: -3.2°C (26°F) [RH = 62%]
Pressure (altimeter): 29.62 inches Hg (1003.1 mb[Sea-level pressure: 1001.9 mb]
Winds: from the NNW (340 degrees) at 10 MPH (9 knots; 4.7 m/s)
Visibility: 10 or more miles (16+ km)
Ceiling: at least 12,000 feet AGL
Clouds: sky clear below 12,000 feet AGL
Weather: automated observation with no human augmentation;
there may or may not be significant weather present at this time

METAR text: KAFF 220258Z AUTO 32007KT 10SM CLR 05/M03 A2962 RMK AO2 SLP031 T00541034 50002
Conditions at: KAFF (USAF ACADEMY/COS, CO, US) observed 0258 UTC 22 December 2014
Temperature: 5.4°C (42°F)
Dewpoint: -3.4°C (26°F) [RH = 53%]
Pressure (altimeter): 29.62 inches Hg (1003.1 mb[Sea-level pressure: 1003.1 mb]
Winds: from the NW (320 degrees) at 8 MPH (7 knots; 3.6 m/s)
Visibility: 10 or more miles (16+ km)
Ceiling: at least 12,000 feet AGL
Clouds: sky clear below 12,000 feet AGL
Weather: automated observation with no human augmentation;
there may or may not be significant weather present at this time

METAR text: KAFF 220158Z AUTO 36006KT 10SM CLR 03/M05 A2961 RMK AO2 SLP034 T00311047
Conditions at: KAFF (USAF ACADEMY/COS, CO, US) observed 0158 UTC 22 December 2014
Temperature: 3.1°C (38°F)
Dewpoint: -4.7°C (24°F) [RH = 56%]
Pressure (altimeter): 29.61 inches Hg (1002.8 mb[Sea-level pressure: 1003.4 mb]
Winds: from the N (360 degrees) at 7 MPH (6 knots; 3.1 m/s)
Visibility: 10 or more miles (16+ km)
Ceiling: at least 12,000 feet AGL
Clouds: sky clear below 12,000 feet AGL
Weather: automated observation with no human augmentation;
there may or may not be significant weather present at this time

METAR text: KAFF 220058Z AUTO 30004KT 10SM SCT140 05/M04 A2962 RMK AO2 PK WND 29026/04 SLP025 T00481045
Conditions at: KAFF (USAF ACADEMY/COS, CO, US) observed 0058 UTC 22 December 2014
Temperature: 4.8°C (41°F)
Dewpoint: -4.5°C (24°F) [RH = 51%]
Pressure (altimeter): 29.62 inches Hg (1003.1 mb[Sea-level pressure: 1002.5 mb]
Winds: from the WNW (300 degrees) at 5 MPH (4 knots; 2.1 m/s)
Visibility: 10 or more miles (16+ km)
Ceiling: at least 12,000 feet AGL
Clouds: scattered clouds at 14000 feet AGL
Weather: automated observation with no human augmentation;
there may or may not be significant weather present at this time

METAR text: KAFF 212358Z AUTO 30014G19KT 10SM CLR 06/M05 A2961 RMK AO2 SLP015 T00591047 10092 20059 53001
Conditions at: KAFF (USAF ACADEMY/COS, CO, US) observed 2358 UTC 21 December 2014
Temperature: 5.9°C (43°F)
Dewpoint: -4.7°C (24°F) [RH = 46%]
Pressure (altimeter): 29.61 inches Hg (1002.8 mb[Sea-level pressure: 1001.5 mb]
Winds: from the WNW (300 degrees) at 16 MPH (14 knots; 7.3 m/sgusting to 22 MPH (19 knots; 9.9 m/s)
Visibility: 10 or more miles (16+ km)
Ceiling: at least 12,000 feet AGL
Clouds: sky clear below 12,000 feet AGL
Weather: automated observation with no human augmentation;
there may or may not be significant weather present at this time

METAR text: KAFF 212258Z AUTO 30009KT 10SM FEW150 07/M06 A2960 RMK AO2 PK WND 30026/29 SLP018 T00741056
Conditions at: KAFF (USAF ACADEMY/COS, CO, US) observed 2258 UTC 21 December 2014
Temperature: 7.4°C (45°F)
Dewpoint: -5.6°C (22°F) [RH = 39%]
Pressure (altimeter): 29.60 inches Hg (1002.5 mb[Sea-level pressure: 1001.8 mb]
Winds: from the WNW (300 degrees) at 10 MPH (9 knots; 4.7 m/s)
Visibility: 10 or more miles (16+ km)
Ceiling: at least 12,000 feet AGL
Clouds: few clouds at 15000 feet AGL
Weather: automated observation with no human augmentation;
there may or may not be significant weather present at this time

METAR text: KAFF 212158Z AUTO 28011G19KT 10SM FEW140 08/M06 A2960 RMK AO2 PK WND 28026/15 SLP018 T00811061
Conditions at: KAFF (USAF ACADEMY/COS, CO, US) observed 2158 UTC 21 December 2014
Temperature: 8.1°C (47°F)
Dewpoint: -6.1°C (21°F) [RH = 36%]
Pressure (altimeter): 29.60 inches Hg (1002.5 mb[Sea-level pressure: 1001.8 mb]
Winds: from the W (280 degrees) at 13 MPH (11 knots; 5.7 m/sgusting to 22 MPH (19 knots; 9.9 m/s)
Visibility: 10 or more miles (16+ km)
Ceiling: at least 12,000 feet AGL
Clouds: few clouds at 14000 feet AGL
Weather: automated observation with no human augmentation;
there may or may not be significant weather present at this time

METAR text: KAFF 212058Z AUTO 25011G22KT 10SM CLR 09/M07 A2961 RMK AO2 PK WND 30030/20 SLP022 T00901068 57017
Conditions at: KAFF (USAF ACADEMY/COS, CO, US) observed 2058 UTC 21 December 2014
Temperature: 9.0°C (48°F)
Dewpoint: -6.8°C (20°F) [RH = 32%]
Pressure (altimeter): 29.61 inches Hg (1002.8 mb[Sea-level pressure: 1002.2 mb]
Winds: from the WSW (250 degrees) at 13 MPH (11 knots; 5.7 m/sgusting to 25 MPH (22 knots; 11.4 m/s)
Visibility: 10 or more miles (16+ km)
Ceiling: at least 12,000 feet AGL
Clouds: sky clear below 12,000 feet AGL
Weather: automated observation with no human augmentation;
there may or may not be significant weather present at this time

METAR text: KAFF 211958Z AUTO 30016G19KT 10SM FEW190 08/M08 A2963 RMK AO2 PK WND 26031/09 SLP029 T00831078
Conditions at: KAFF (USAF ACADEMY/COS, CO, US) observed 1958 UTC 21 December 2014
Temperature: 8.3°C (47°F)
Dewpoint: -7.8°C (18°F) [RH = 31%]
Pressure (altimeter): 29.63 inches Hg (1003.5 mb[Sea-level pressure: 1002.9 mb]
Winds: from the WNW (300 degrees) at 18 MPH (16 knots; 8.3 m/sgusting to 22 MPH (19 knots; 9.9 m/s)
Visibility: 10 or more miles (16+ km)
Ceiling: at least 12,000 feet AGL
Clouds: few clouds at 19000 feet AGL
Weather: automated observation with no human augmentation;
there may or may not be significant weather present at this time

METAR text: KAFF 211858Z AUTO 27014G20KT 10SM FEW130 08/M08 A2963 RMK AO2 SLP029 T00771083
Conditions at: KAFF (USAF ACADEMY/COS, CO, US) observed 1858 UTC 21 December 2014
Temperature: 7.7°C (46°F)
Dewpoint: -8.3°C (17°F) [RH = 31%]
Pressure (altimeter): 29.63 inches Hg (1003.5 mb[Sea-level pressure: 1002.9 mb]
Winds: from the W (270 degrees) at 16 MPH (14 knots; 7.3 m/sgusting to 23 MPH (20 knots; 10.4 m/s)
Visibility: 10 or more miles (16+ km)
Ceiling: at least 12,000 feet AGL
Clouds: few clouds at 13000 feet AGL
Weather: automated observation with no human augmentation;
there may or may not be significant weather present at this time

METAR text: KAFF 211758Z AUTO 00000KT 10SM FEW140 07/M10 A2967 RMK AO2 SLP049 T00721096 10072 21025 57017
Conditions at: KAFF (USAF ACADEMY/COS, CO, US) observed 1758 UTC 21 December 2014
Temperature: 7.2°C (45°F)
Dewpoint: -9.6°C (15°F) [RH = 29%]
Pressure (altimeter): 29.67 inches Hg (1004.8 mb[Sea-level pressure: 1004.9 mb]
Winds: calm
Visibility: 10 or more miles (16+ km)
Ceiling: at least 12,000 feet AGL
Clouds: few clouds at 14000 feet AGL
Weather: automated observation with no human augmentation;
there may or may not be significant weather present at this time

METAR text: KAFF 211725Z AUTO 28013G18KT 230V330 10SM CLR 07/M10 A2969 RMK AO2 WSHFT 23
Conditions at: KAFF (USAF ACADEMY/COS, CO, US) observed 1725 UTC 21 December 2014
Temperature: 7.0°C (45°F)
Dewpoint: -10.0°C (14°F) [RH = 29%]
Pressure (altimeter): 29.69 inches Hg (1005.5 mb)
Winds: from the W (280 degrees) at 15 MPH (13 knots; 6.8 m/sgusting to 21 MPH (18 knots; 9.4 m/s)
Visibility: 10 or more miles (16+ km)
Ceiling: at least 12,000 feet AGL
Clouds: sky clear below 12,000 feet AGL
Weather: automated observation with no human augmentation;
there may or may not be significant weather present at this time

METAR text: KAFF 211723Z AUTO 26012G18KT 210V330 10SM CLR 07/M10 A2969 RMK AO2 WSHFT 22
Conditions at: KAFF (USAF ACADEMY/COS, CO, US) observed 1723 UTC 21 December 2014
Temperature: 7.0°C (45°F)
Dewpoint: -10.0°C (14°F) [RH = 29%]
Pressure (altimeter): 29.69 inches Hg (1005.5 mb)
Winds: from the W (260 degrees) at 14 MPH (12 knots; 6.2 m/sgusting to 21 MPH (18 knots; 9.4 m/s)
Visibility: 10 or more miles (16+ km)
Ceiling: at least 12,000 feet AGL
Clouds: sky clear below 12,000 feet AGL
Weather: automated observation with no human augmentation;
there may or may not be significant weather present at this time

METAR text: KAFF 211658Z AUTO 25012G26KT 10SM CLR 07/M10 A2971 RMK AO2 PK WND 26027/48 SLP051 T00671100
Conditions at: KAFF (USAF ACADEMY/COS, CO, US) observed 1658 UTC 21 December 2014
Temperature: 6.7°C (44°F)
Dewpoint: -10.0°C (14°F) [RH = 29%]
Pressure (altimeter): 29.71 inches Hg (1006.2 mb[Sea-level pressure: 1005.1 mb]
Winds: from the WSW (250 degrees) at 14 MPH (12 knots; 6.2 m/sgusting to 30 MPH (26 knots; 13.5 m/s)
Visibility: 10 or more miles (16+ km)
Ceiling: at least 12,000 feet AGL
Clouds: sky clear below 12,000 feet AGL
Weather: automated observation with no human augmentation;
there may or may not be significant weather present at this time

METAR text: KAFF 211558Z AUTO 29005KT 10SM CLR 02/M09 A2972 RMK AO2 SLP067 T00221092
Conditions at: KAFF (USAF ACADEMY/COS, CO, US) observed 1558 UTC 21 December 2014
Temperature: 2.2°C (36°F)
Dewpoint: -9.2°C (15°F) [RH = 43%]
Pressure (altimeter): 29.72 inches Hg (1006.5 mb[Sea-level pressure: 1006.7 mb]
Winds: from the WNW (290 degrees) at 6 MPH (5 knots; 2.6 m/s)
Visibility: 10 or more miles (16+ km)
Ceiling: at least 12,000 feet AGL
Clouds: sky clear below 12,000 feet AGL
Weather: automated observation with no human augmentation;
there may or may not be significant weather present at this time

METAR text: KAFF 211458Z AUTO 00000KT 10SM CLR M02/M09 A2974 RMK AO2 SLP092 T10181089 55017
Conditions at: KAFF (USAF ACADEMY/COS, CO, US) observed 1458 UTC 21 December 2014
Temperature: -1.8°C (29°F)
Dewpoint: -8.9°C (16°F) [RH = 58%]
Pressure (altimeter): 29.74 inches Hg (1007.2 mb[Sea-level pressure: 1009.2 mb]
Winds: calm
Visibility: 10 or more miles (16+ km)
Ceiling: at least 12,000 feet AGL
Clouds: sky clear below 12,000 feet AGL
Weather: automated observation with no human augmentation;
there may or may not be significant weather present at this time

METAR text: KAFF 211358Z AUTO 33002KT 10SM CLR M02/M09 A2979 RMK AO2 SLP110 T10221089
Conditions at: KAFF (USAF ACADEMY/COS, CO, US) observed 1358 UTC 21 December 2014
Temperature: -2.2°C (28°F)
Dewpoint: -8.9°C (16°F) [RH = 60%]
Pressure (altimeter): 29.79 inches Hg (1008.9 mb[Sea-level pressure: 1011.0 mb]
Winds: from the NNW (330 degrees) at 2 MPH (2 knots; 1.0 m/s)
Visibility: 10 or more miles (16+ km)
Ceiling: at least 12,000 feet AGL
Clouds: sky clear below 12,000 feet AGL
Weather: automated observation with no human augmentation;
there may or may not be significant weather present at this time

METAR text: KAFF 211258Z AUTO 13007KT 10SM CLR 00/M10 A2978 RMK AO2 SLP088 T10021098
Conditions at: KAFF (USAF ACADEMY/COS, CO, US) observed 1258 UTC 21 December 2014
Temperature: -0.2°C (32°F)
Dewpoint: -9.8°C (14°F) [RH = 48%]
Pressure (altimeter): 29.78 inches Hg (1008.5 mb[Sea-level pressure: 1008.8 mb]
Winds: from the SE (130 degrees) at 8 MPH (7 knots; 3.6 m/s)
Visibility: 10 or more miles (16+ km)
Ceiling: at least 12,000 feet AGL
Clouds: sky clear below 12,000 feet AGL
Weather: automated observation with no human augmentation;
there may or may not be significant weather present at this time

METAR text: KAFF 211158Z AUTO 05004KT 10SM CLR 02/M10 A2980 RMK AO2 SLP083 T00181101 10023 21045 57025
Conditions at: KAFF (USAF ACADEMY/COS, CO, US) observed 1158 UTC 21 December 2014
Temperature: 1.8°C (35°F)
Dewpoint: -10.1°C (14°F) [RH = 41%]
Pressure (altimeter): 29.80 inches Hg (1009.2 mb[Sea-level pressure: 1008.3 mb]
Winds: from the NE (50 degrees) at 5 MPH (4 knots; 2.1 m/s)
Visibility: 10 or more miles (16+ km)
Ceiling: at least 12,000 feet AGL
Clouds: sky clear below 12,000 feet AGL
Weather: automated observation with no human augmentation;
there may or may not be significant weather present at this time

METAR text: KAFF 211058Z AUTO VRB06KT 10SM CLR M01/M10 A2982 RMK AO2 SLP090 T10091100
Conditions at: KAFF (USAF ACADEMY/COS, CO, US) observed 1058 UTC 21 December 2014
Temperature: -0.9°C (30°F)
Dewpoint: -10.0°C (14°F) [RH = 50%]
Pressure (altimeter): 29.82 inches Hg (1009.9 mb[Sea-level pressure: 1009.0 mb]
Winds: variable direction winds at 7 MPH (6 knots; 3.1 m/s)
Visibility: 10 or more miles (16+ km)
Ceiling: at least 12,000 feet AGL
Clouds: sky clear below 12,000 feet AGL
Weather: automated observation with no human augmentation;
there may or may not be significant weather present at this time

METAR text: KAFF 210958Z AUTO 06009KT 10SM CLR M02/M09 A2987 RMK AO2 SLP101 T10211092
Conditions at: KAFF (USAF ACADEMY/COS, CO, US) observed 0958 UTC 21 December 2014
Temperature: -2.1°C (28°F)
Dewpoint: -9.2°C (15°F) [RH = 58%]
Pressure (altimeter): 29.87 inches Hg (1011.6 mb[Sea-level pressure: 1010.1 mb]
Winds: from the ENE (60 degrees) at 10 MPH (9 knots; 4.7 m/s)
Visibility: 10 or more miles (16+ km)
Ceiling: at least 12,000 feet AGL
Clouds: sky clear below 12,000 feet AGL
Weather: automated observation with no human augmentation;
there may or may not be significant weather present at this time

METAR text: KAFF 210858Z AUTO 01007KT 10SM CLR M03/M09 A2988 RMK AO2 SLP111 T10311093 56010
Conditions at: KAFF (USAF ACADEMY/COS, CO, US) observed 0858 UTC 21 December 2014
Temperature: -3.1°C (26°F)
Dewpoint: -9.3°C (15°F) [RH = 62%]
Pressure (altimeter): 29.88 inches Hg (1011.9 mb[Sea-level pressure: 1011.1 mb]
Winds: from the N (10 degrees) at 8 MPH (7 knots; 3.6 m/s)
Visibility: 10 or more miles (16+ km)
Ceiling: at least 12,000 feet AGL
Clouds: sky clear below 12,000 feet AGL
Weather: automated observation with no human augmentation;
there may or may not be significant weather present at this time

METAR text: KAFF 210758Z AUTO 31002KT 10SM CLR M03/M09 A2988 RMK AO2 SLP111 T10271089
Conditions at: KAFF (USAF ACADEMY/COS, CO, US) observed 0758 UTC 21 December 2014
Temperature: -2.7°C (27°F)
Dewpoint: -8.9°C (16°F) [RH = 62%]
Pressure (altimeter): 29.88 inches Hg (1011.9 mb[Sea-level pressure: 1011.1 mb]
Winds: from the NW (310 degrees) at 2 MPH (2 knots; 1.0 m/s)
Visibility: 10 or more miles (16+ km)
Ceiling: at least 12,000 feet AGL
Clouds: sky clear below 12,000 feet AGL
Weather: automated observation with no human augmentation;
there may or may not be significant weather present at this time

METAR text: KAFF 210658Z AUTO VRB03KT 10SM CLR M02/M08 A2991 RMK AO2 SLP128 T10221080 401111078
Conditions at: KAFF (USAF ACADEMY/COS, CO, US) observed 0658 UTC 21 December 2014
Temperature: -2.2°C (28°F)
Dewpoint: -8.0°C (18°F) [RH = 64%]
Pressure (altimeter): 29.91 inches Hg (1013.0 mb[Sea-level pressure: 1012.8 mb]
Winds: variable direction winds at 3 MPH (3 knots; 1.6 m/s)
Visibility: 10 or more miles (16+ km)
Ceiling: at least 12,000 feet AGL
Clouds: sky clear below 12,000 feet AGL
Weather: automated observation with no human augmentation;
there may or may not be significant weather present at this time

METAR text: KAFF 210558Z AUTO 32003KT 10SM CLR M03/M08 A2992 RMK AO2 SLP138 T10311078 10058 21031 57012
Conditions at: KAFF (USAF ACADEMY/COS, CO, US) observed 0558 UTC 21 December 2014
Temperature: -3.1°C (26°F)
Dewpoint: -7.8°C (18°F) [RH = 70%]
Pressure (altimeter): 29.92 inches Hg (1013.3 mb[Sea-level pressure: 1013.8 mb]
Winds: from the NW (320 degrees) at 3 MPH (3 knots; 1.6 m/s)
Visibility: 10 or more miles (16+ km)
Ceiling: at least 12,000 feet AGL
Clouds: sky clear below 12,000 feet AGL
Weather: automated observation with no human augmentation;
there may or may not be significant weather present at this time

METAR text: KAFF 210458Z AUTO 36005KT 10SM CLR 00/M07 A2994 RMK AO2 SLP145 T00021073
Conditions at: KAFF (USAF ACADEMY/COS, CO, US) observed 0458 UTC 21 December 2014
Temperature: 0.2°C (32°F)
Dewpoint: -7.3°C (19°F) [RH = 57%]
Pressure (altimeter): 29.94 inches Hg (1014.0 mb[Sea-level pressure: 1014.5 mb]
Winds: from the N (360 degrees) at 6 MPH (5 knots; 2.6 m/s)
Visibility: 10 or more miles (16+ km)
Ceiling: at least 12,000 feet AGL
Clouds: sky clear below 12,000 feet AGL
Weather: automated observation with no human augmentation;
there may or may not be significant weather present at this time

METAR text: KAFF 210358Z AUTO 05006KT 10SM CLR 02/M07 A2994 RMK AO2 SLP145 T00191070
Conditions at: KAFF (USAF ACADEMY/COS, CO, US) observed 0358 UTC 21 December 2014
Temperature: 1.9°C (35°F)
Dewpoint: -7.0°C (19°F) [RH = 52%]
Pressure (altimeter): 29.94 inches Hg (1014.0 mb[Sea-level pressure: 1014.5 mb]
Winds: from the NE (50 degrees) at 7 MPH (6 knots; 3.1 m/s)
Visibility: 10 or more miles (16+ km)
Ceiling: at least 12,000 feet AGL
Clouds: sky clear below 12,000 feet AGL
Weather: automated observation with no human augmentation;
there may or may not be significant weather present at this time

METAR text: KAFF 210258Z AUTO 32007KT 10SM CLR 00/M07 A2996 RMK AO2 SLP176 T10041075 50005
Conditions at: KAFF (USAF ACADEMY/COS, CO, US) observed 0258 UTC 21 December 2014
Temperature: -0.4°C (31°F)
Dewpoint: -7.5°C (18°F) [RH = 59%]
Pressure (altimeter): 29.96 inches Hg (1014.6 mb[Sea-level pressure: 1017.6 mb]
Winds: from the NW (320 degrees) at 8 MPH (7 knots; 3.6 m/s)
Visibility: 10 or more miles (16+ km)
Ceiling: at least 12,000 feet AGL
Clouds: sky clear below 12,000 feet AGL
Weather: automated observation with no human augmentation;
there may or may not be significant weather present at this time

METAR text: KAFF 210158Z AUTO 36004KT 10SM CLR 00/M08 A2995 RMK AO2 SLP172 T00011081
Conditions at: KAFF (USAF ACADEMY/COS, CO, US) observed 0158 UTC 21 December 2014
Temperature: 0.1°C (32°F)
Dewpoint: -8.1°C (17°F) [RH = 54%]
Pressure (altimeter): 29.95 inches Hg (1014.3 mb[Sea-level pressure: 1017.2 mb]
Winds: from the N (360 degrees) at 5 MPH (4 knots; 2.1 m/s)
Visibility: 10 or more miles (16+ km)
Ceiling: at least 12,000 feet AGL
Clouds: sky clear below 12,000 feet AGL
Weather: automated observation with no human augmentation;
there may or may not be significant weather present at this time